Terminal Aerodrome Forecast
Issued by NWS

Home | Current Version | Previous Version | Text Only | Print | Product List | Glossary On
Versions: 1 2 3 4 5 6 7 8 9 10 11 12 13 14
495
FTUS44 KJAN 211903 RRA
TAFGTR
TAF
KGTR 211903Z 2119/2218 15008KT P6SM FEW090
     FM220700 19009KT 5SM -TSRA BKN025CB
     FM220800 19008KT P6SM OVC015
     FM221100 19008KT P6SM OVC050=

USA.gov is the U.S. government's official web portal to all federal, state and local government web resources and services.